Startpagina
METAR-TAF:

METAR-TAF

Vliegvelden :

Pago Pago, Kleine afgelegen eilanden van de Verenigde Staten

breedte: 14-20S, lengte: 170-43W, hoogte: 3 m

Actueel weer

Dit bericht is 22 minuten geleden gemaakt, om 21:50 UTC
Wind 12 kt uit het zuidoosten
Temperatuur 29°C
Vochtigheid 74%
Druk 1011 hPa
Zicht: 19.3 km
Weinig wolken op 1800 ft
Verspreide wolken op 10000 ft

METAR: NSTU 202150Z 14012KT 12SM FEW018 SCT100 29/24 A2984 RMK SLP105 T02900239

Tijdstip: 11:12 (22:12 UTC)

Verwachting

Dit bericht is 4 uur en het 34 minuten geleden gemaakt, om 17:38 UTC
Verwachting geldig van 20 om 18 UTC tot 21 om 18 UTC
Wind 13 kt uit het zuidoosten
Zicht: 10 km
Verspreide wolken op 2000 ft
Gebroken wolken op 3500 ft
buien in de omgeving

TAF: NSTU 201738Z 2018/2118 13013KT P6SM VCSH SCT020 BKN035

Waarnemingen en weersverwachtingen van meer dan 4000 vliegvelden (METAR en TAF).

De beschikbare stations zijn de gele en rode punten op de kaart.

Ga met uw muis naar het station om de naam te zien.

Klik dan om waarnemingen en weersverwachtingen te zien.

kaart wijzigen: klik op de groene knoppen met een zwart kruis om in te zoomen, op de groene knop met een streepje om uit te zoomen of op de groene pijlen voor aangrenzende kaarten.


METAR-TAF: